Terminal Aerodrome Forecast
Issued by NWS

Current Version | Previous Version | Text Only | Print | Product List | Glossary On
Versions: 1 2 3 4 5 6 7 8 9 10 11 12 13 14 15 16 17 18 19 20 21 22 23 24 25 26 27
000
FTUS41 KRNK 281123
TAFBCB
TAF
KBCB 281123Z 2812/2912 29008KT P6SM SCT025
     FM281400 30013G23KT P6SM BKN035
     FM282200 31009KT P6SM SCT035
     FM290400 VRB03KT P6SM BKN025
     FM290800 VRB03KT 4SM BR BKN025=

USA.gov is the U.S. government's official web portal to all federal, state and local government web resources and services.